Time;durP1;ratioP1;P1;durP2;ratioP2;P2;SDS_P1;SDS_P2;PMS_P1;PMS_P2;Temp;Humidity;BMP_temperature;BMP_pressure;BME280_temperature;BME280_humidity;BME280_pressure;Samples;Min_cycle;Max_cycle;Signal;HPM_P1;HPM_P2
2023/07/18 00:02:18;;;;;;;27.40;5.15;;;;;;;;;;6058119;23;20201;-52
2023/07/18 00:04:54;;;;;;;25.02;4.30;;;;;;;;;;6059362;23;20062;-62
2023/07/18 00:07:21;;;;;;;16.92;4.05;;;;;;;;;;6057912;23;20034;-57
2023/07/18 00:09:48;;;;;;;20.13;4.00;;;;;;;;;;6060372;23;20030;-58
2023/07/18 00:12:25;;;;;;;21.60;4.53;;;;;;;;;;6059597;23;20086;-58
2023/07/18 00:14:52;;;;;;;27.58;4.35;;;;;;;;;;6059739;23;20065;-57
2023/07/18 00:17:26;;;;;;;21.92;4.03;;;;;;;;;;6059720;23;20086;-58
2023/07/18 00:19:53;;;;;;;18.90;4.10;;;;;;;;;;6059952;23;20023;-59
2023/07/18 00:22:21;;;;;;;20.60;4.53;;;;;;;;;;6058660;23;20030;-58
2023/07/18 00:24:54;;;;;;;22.52;4.50;;;;;;;;;;6060378;23;20082;-51
2023/07/18 00:27:22;;;;;;;20.63;4.60;;;;;;;;;;6059343;23;20461;-51
2023/07/18 00:29:55;;;;;;;21.20;3.90;;;;;;;;;;6060079;23;20447;-51
2023/07/18 00:32:35;;;;;;;23.80;4.47;;;;;;;;;;6057877;23;20026;-48
2023/07/18 00:35:11;;;;;;;33.05;4.53;;;;;;;;;;6059694;23;20057;-57
2023/07/18 00:37:39;;;;;;;22.85;5.00;;;;;;;;;;6057608;23;20517;-59
2023/07/18 00:40:11;;;;;;;24.08;4.38;;;;;;;;;;6060653;23;20056;-58
2023/07/18 00:42:45;;;;;;;28.13;4.55;;;;;;;;;;6058553;23;20097;-59
2023/07/18 00:45:20;;;;;;;23.20;4.78;;;;;;;;;;6060177;23;20027;-59
2023/07/18 00:47:53;;;;;;;24.35;4.43;;;;;;;;;;6059599;23;20023;-59
2023/07/18 00:50:21;;;;;;;18.67;4.55;;;;;;;;;;6059491;23;20023;-59
2023/07/18 00:52:49;;;;;;;23.92;4.72;;;;;;;;;;6059332;23;20024;-59
2023/07/18 00:55:23;;;;;;;28.00;4.25;;;;;;;;;;6060142;23;20026;-59
2023/07/18 00:57:51;;;;;;;26.23;4.90;;;;;;;;;;6058376;23;20331;-59
2023/07/18 01:00:24;;;;;;;19.13;4.20;;;;;;;;;;6058901;23;20090;-58
2023/07/18 01:02:53;;;;;;;31.67;4.90;;;;;;;;;;6059204;23;20027;-58
2023/07/18 01:05:20;;;;;;;22.73;4.20;;;;;;;;;;6058755;23;20069;-62
2023/07/18 01:07:55;;;;;;;18.95;4.28;;;;;;;;;;6058083;23;20026;-62
2023/07/18 01:10:23;;;;;;;24.20;4.22;;;;;;;;;;6058616;23;20545;-63
2023/07/18 01:12:54;;;;;;;21.02;4.40;;;;;;;;;;6058485;23;20086;-63
2023/07/18 01:15:32;;;;;;;28.48;4.45;;;;;;;;;;6059064;23;20027;-62
2023/07/18 01:18:08;;;;;;;22.20;4.53;;;;;;;;;;6058764;23;20026;-62
2023/07/18 01:20:45;;;;;;;25.02;5.57;;;;;;;;;;6059767;23;20082;-57
2023/07/18 01:23:13;;;;;;;19.80;4.53;;;;;;;;;;6058743;23;20027;-57
2023/07/18 01:25:48;;;;;;;27.65;5.13;;;;;;;;;;6058725;23;20027;-58
2023/07/18 01:28:15;;;;;;;13.93;3.60;;;;;;;;;;6059142;23;20031;-58
2023/07/18 01:30:42;;;;;;;32.10;5.38;;;;;;;;;;6058111;23;20031;-56
2023/07/18 01:33:23;;;;;;;28.60;4.97;;;;;;;;;;6057795;23;20029;-61
2023/07/18 01:35:51;;;;;;;21.35;4.47;;;;;;;;;;6057910;23;20610;-62
2023/07/18 01:38:32;;;;;;;22.58;4.32;;;;;;;;;;6058298;23;20039;-61
2023/07/18 01:40:59;;;;;;;13.23;3.95;;;;;;;;;;6056520;23;20026;-62
2023/07/18 01:43:35;;;;;;;22.88;4.88;;;;;;;;;;6058183;23;20031;-62
2023/07/18 01:46:02;;;;;;;18.98;4.68;;;;;;;;;;6059835;23;20463;-61
2023/07/18 01:48:29;;;;;;;26.38;4.00;;;;;;;;;;6058912;23;20431;-62
2023/07/18 01:51:03;;;;;;;25.42;4.28;;;;;;;;;;6058392;23;20427;-62
2023/07/18 01:53:30;;;;;;;20.35;5.07;;;;;;;;;;6057394;23;20509;-62
2023/07/18 01:56:05;;;;;;;18.45;4.40;;;;;;;;;;6058558;23;20034;-63
2023/07/18 01:58:33;;;;;;;24.52;4.47;;;;;;;;;;6057166;23;20019;-62
2023/07/18 02:01:03;;;;;;;20.23;3.88;;;;;;;;;;6057425;23;20031;-48
2023/07/18 02:03:37;;;;;;;20.35;4.05;;;;;;;;;;6057872;23;20031;-57
2023/07/18 02:06:04;;;;;;;;;;;;;;;;;;6057391;23;20033;-58
2023/07/18 02:08:37;;;;;;;23.95;4.10;;;;;;;;;;6057705;23;19925;-58
2023/07/18 02:11:04;;;;;;;21.25;4.22;;;;;;;;;;6058393;23;20079;-58
2023/07/18 02:13:32;;;;;;;25.45;4.22;;;;;;;;;;6057355;23;20057;-58
2023/07/18 02:16:05;;;;;;;23.83;3.95;;;;;;;;;;6058677;23;20035;-58
2023/07/18 02:18:32;;;;;;;27.50;4.72;;;;;;;;;;6056914;23;20022;-57
2023/07/18 02:21:00;;;;;;;27.80;4.32;;;;;;;;;;6056939;23;20034;-56
2023/07/18 02:23:33;;;;;;;24.90;4.65;;;;;;;;;;6057716;23;20427;-57
2023/07/18 02:26:00;;;;;;;21.38;4.22;;;;;;;;;;6059057;23;20078;-57
2023/07/18 02:28:34;;;;;;;23.10;4.57;;;;;;;;;;6055790;23;20030;-58
2023/07/18 02:31:02;;;;;;;26.02;5.10;;;;;;;;;;6055255;23;20027;-59
2023/07/18 02:33:29;;;;;;;;;;;;;;;;;;6057940;23;20035;-58
2023/07/18 02:36:06;;;;;;;31.27;5.00;;;;;;;;;;6057276;23;19976;-58
2023/07/18 02:38:33;;;;;;;17.38;3.83;;;;;;;;;;6058636;23;20022;-58
2023/07/18 02:41:28;;;;;;;19.02;4.00;;;;;;;;;;6057600;23;20027;-58
2023/07/18 02:44:15;;;;;;;20.65;4.03;;;;;;;;;;6058873;23;20064;-58
2023/07/18 02:47:09;;;;;;;17.33;3.63;;;;;;;;;;6059167;23;20027;-49
2023/07/18 02:49:55;;;;;;;17.90;4.35;;;;;;;;;;6057077;23;20311;-51
2023/07/18 02:52:49;;;;;;;17.80;3.25;;;;;;;;;;6057245;23;20022;-52
2023/07/18 02:55:36;;;;;;;21.48;4.63;;;;;;;;;;6060598;23;20065;-57
2023/07/18 02:58:30;;;;;;;23.10;3.53;;;;;;;;;;6060161;23;20031;-57
2023/07/18 03:01:21;;;;;;;28.13;4.97;;;;;;;;;;6059554;23;20566;-57
2023/07/18 03:04:14;;;;;;;16.63;4.05;;;;;;;;;;6058614;23;20023;-57
2023/07/18 03:07:03;;;;;;;19.98;3.80;;;;;;;;;;6061237;23;20078;-58
2023/07/18 03:09:56;;;;;;;22.50;3.95;;;;;;;;;;6060160;23;20030;-56
2023/07/18 03:12:43;;;;;;;13.88;3.40;;;;;;;;;;6059124;23;20023;-58
2023/07/18 03:15:38;;;;;;;21.70;3.90;;;;;;;;;;6059636;23;20030;-58
2023/07/18 03:18:24;;;;;;;16.02;4.05;;;;;;;;;;6057854;23;20018;-58
2023/07/18 03:21:17;;;;;;;20.13;3.78;;;;;;;;;;6060186;23;20031;-58
2023/07/18 03:24:07;;;;;;;19.33;4.22;;;;;;;;;;6059992;23;20439;-50
2023/07/18 03:26:59;;;;;;;18.60;3.67;;;;;;;;;;6058866;23;20435;-58
2023/07/18 03:29:46;;;;;;;21.17;3.83;;;;;;;;;;6059694;23;20144;-61
2023/07/18 03:32:40;;;;;;;11.57;3.17;;;;;;;;;;6058580;23;20439;-62
2023/07/18 03:35:40;;;;;;;14.50;3.85;;;;;;;;;;6059512;23;20026;-62
2023/07/18 03:38:35;;;;;;;13.07;3.05;;;;;;;;;;6058697;23;20031;-62
2023/07/18 03:41:22;;;;;;;14.75;3.10;;;;;;;;;;6059856;23;20031;-62
2023/07/18 03:44:15;;;;;;;22.17;3.88;;;;;;;;;;6059041;23;20340;-55
2023/07/18 03:47:09;;;;;;;23.70;3.45;;;;;;;;;;6058504;23;20022;-55
2023/07/18 03:50:04;;;;;;;17.83;3.30;;;;;;;;;;6058717;23;20074;-56
2023/07/18 03:52:51;;;;;;;26.13;3.75;;;;;;;;;;6059952;23;20027;-57
2023/07/18 03:55:44;;;;;;;15.43;3.08;;;;;;;;;;6058882;23;20487;-49
2023/07/18 03:58:32;;;;;;;22.05;3.50;;;;;;;;;;6059468;23;20208;-53
2023/07/18 04:01:25;;;;;;;20.40;3.40;;;;;;;;;;6059100;23;20027;-51
2023/07/18 04:04:13;;;;;;;20.33;3.63;;;;;;;;;;6058824;23;20018;-50
2023/07/18 04:07:06;;;;;;;23.55;4.25;;;;;;;;;;6059106;23;20542;-52
2023/07/18 04:09:54;;;;;;;16.35;3.50;;;;;;;;;;6057128;23;20106;-48
2023/07/18 04:12:47;;;;;;;19.85;3.75;;;;;;;;;;6060042;23;20082;-61
2023/07/18 04:15:35;;;;;;;18.17;1.92;;;;;;;;;;6058507;23;20412;-62
2023/07/18 04:18:28;;;;;;;8.75;2.00;;;;;;;;;;6058994;23;20050;-62
2023/07/18 04:21:16;;;;;;;6.10;1.90;;;;;;;;;;6060380;23;20078;-62
2023/07/18 04:24:09;;;;;;;11.68;1.75;;;;;;;;;;6058429;23;20031;-62
2023/07/18 04:26:56;;;;;;;7.57;1.85;;;;;;;;;;6058214;23;20557;-63
2023/07/18 04:29:50;;;;;;;7.65;3.08;;;;;;;;;;6058784;23;20494;-63
2023/07/18 04:32:51;;;;;;;10.50;2.15;;;;;;;;;;6057644;23;20098;-63
2023/07/18 04:35:39;;;;;;;11.30;2.85;;;;;;;;;;6057806;23;20078;-63
2023/07/18 04:38:32;;;;;;;14.55;3.28;;;;;;;;;;6058292;23;20030;-63
2023/07/18 04:41:19;;;;;;;10.48;1.70;;;;;;;;;;6060808;23;20078;-57
2023/07/18 04:44:21;;;;;;;12.40;1.90;;;;;;;;;;6058942;23;20019;-57
2023/07/18 04:47:09;;;;;;;12.98;1.98;;;;;;;;;;6059027;23;20027;-58
2023/07/18 04:50:03;;;;;;;16.33;2.30;;;;;;;;;;6059499;23;20042;-61
2023/07/18 04:52:51;;;;;;;17.70;3.80;;;;;;;;;;6057837;23;20023;-52
2023/07/18 04:55:44;;;;;;;7.82;2.15;;;;;;;;;;6058807;23;20435;-50
2023/07/18 04:58:31;;;;;;;10.95;2.80;;;;;;;;;;6057417;23;20026;-48
2023/07/18 05:01:28;;;;;;;9.50;1.92;;;;;;;;;;6057951;23;20585;-52
2023/07/18 05:04:13;;;;;;;6.32;1.98;;;;;;;;;;6057770;23;20173;-49
2023/07/18 05:07:07;;;;;;;11.80;2.03;;;;;;;;;;6059362;23;20082;-49
2023/07/18 05:09:54;;;;;;;17.80;2.47;;;;;;;;;;6056711;23;20023;-51
2023/07/18 05:12:47;;;;;;;6.70;1.70;;;;;;;;;;6058377;23;20426;-52
2023/07/18 05:15:36;;;;;;;9.98;2.70;;;;;;;;;;6057816;23;20030;-50
2023/07/18 05:18:29;;;;;;;6.28;2.33;;;;;;;;;;6057876;23;20035;-51
2023/07/18 05:21:16;;;;;;;10.60;2.65;;;;;;;;;;6057900;23;20067;-61
2023/07/18 05:24:10;;;;;;;9.80;1.75;;;;;;;;;;6056353;23;20051;-62
2023/07/18 05:27:03;;;;;;;6.43;1.83;;;;;;;;;;6059264;23;20086;-61
2023/07/18 05:29:57;;;;;;;7.35;1.83;;;;;;;;;;6056192;23;20370;-62
2023/07/18 05:32:58;;;;;;;7.47;1.30;;;;;;;;;;6056694;23;20387;-62
2023/07/18 05:35:52;;;;;;;5.90;1.50;;;;;;;;;;6059857;23;20434;-61
2023/07/18 05:38:45;;;;;;;11.20;1.52;;;;;;;;;;6056122;23;20344;-58
2023/07/18 05:41:33;;;;;;;7.03;1.77;;;;;;;;;;6058271;23;20019;-58
2023/07/18 05:44:27;;;;;;;7.07;1.38;;;;;;;;;;6059000;23;20035;-58
2023/07/18 05:47:15;;;;;;;6.82;1.52;;;;;;;;;;6057875;23;20027;-61
2023/07/18 05:50:08;;;;;;;5.15;1.50;;;;;;;;;;6051680;23;20447;-57
2023/07/18 05:52:55;;;;;;;8.18;1.98;;;;;;;;;;6057072;23;20026;-58
2023/07/18 05:55:49;;;;;;;11.15;1.90;;;;;;;;;;6057234;23;20098;-58
2023/07/18 05:58:42;;;;;;;8.70;1.75;;;;;;;;;;6056336;23;20027;-58
2023/07/18 06:01:30;;;;;;;7.22;1.90;;;;;;;;;;6056821;23;20054;-58
2023/07/18 06:04:23;;;;;;;6.40;1.58;;;;;;;;;;6057711;23;20026;-58
2023/07/18 06:07:18;;;;;;;6.70;1.63;;;;;;;;;;6058117;23;20022;-58
2023/07/18 06:10:05;;;;;;;7.35;1.75;;;;;;;;;;6056004;23;20503;-58
2023/07/18 06:12:58;;;;;;;8.05;1.52;;;;;;;;;;6058356;23;20022;-58
2023/07/18 06:15:50;;;;;;;7.72;1.60;;;;;;;;;;6057285;23;20386;-58
2023/07/18 06:18:42;;;;;;;3.15;1.30;;;;;;;;;;6057511;23;20114;-60
2023/07/18 06:21:29;;;;;;;11.13;1.92;;;;;;;;;;6057891;23;20026;-62
2023/07/18 06:24:24;;;;;;;10.20;1.95;;;;;;;;;;6057571;23;20034;-61
2023/07/18 06:27:11;;;;;;;10.82;2.65;;;;;;;;;;6057479;23;20438;-62
2023/07/18 06:30:05;;;;;;;10.93;2.20;;;;;;;;;;6056632;23;20022;-61
2023/07/18 06:33:05;;;;;;;7.95;2.08;;;;;;;;;;6052308;23;20027;-62
2023/07/18 06:35:59;;;;;;;9.90;2.42;;;;;;;;;;6055378;23;20031;-57
2023/07/18 06:38:52;;;;;;;;;;;;;;;;;;6056578;23;20437;-58
2023/07/18 06:41:40;;;;;;;15.10;2.47;;;;;;;;;;6056637;23;19922;-57
2023/07/18 06:44:33;;;;;;;14.55;2.50;;;;;;;;;;6055498;23;20023;-56
2023/07/18 06:47:20;;;;;;;17.25;2.45;;;;;;;;;;6058277;23;20082;-49
2023/07/18 06:50:14;;;;;;;8.27;2.20;;;;;;;;;;6058083;23;20019;-51
2023/07/18 06:53:08;;;;;;;11.00;1.90;;;;;;;;;;6059017;23;20034;-52
2023/07/18 06:56:01;;;;;;;12.68;3.25;;;;;;;;;;6059437;23;20023;-55
2023/07/18 06:58:49;;;;;;;13.77;2.40;;;;;;;;;;6057901;23;20026;-48
2023/07/18 07:01:42;;;;;;;15.07;3.00;;;;;;;;;;6057814;23;20558;-57
2023/07/18 07:04:37;;;;;;;10.77;2.08;;;;;;;;;;6058525;23;20031;-56
2023/07/18 07:07:30;;;;;;;13.57;2.67;;;;;;;;;;6059236;23;20046;-58
2023/07/18 07:10:18;;;;;;;13.57;2.63;;;;;;;;;;6057294;23;20023;-57
2023/07/18 07:13:12;;;;;;;13.32;2.33;;;;;;;;;;6054555;23;20545;-58
2023/07/18 07:16:00;;;;;;;9.23;2.53;;;;;;;;;;6058417;23;20490;-56
2023/07/18 07:18:52;;;;;;;14.20;2.38;;;;;;;;;;6055874;23;20034;-57
2023/07/18 07:21:40;;;;;;;10.18;2.22;;;;;;;;;;6057302;23;20022;-56
2023/07/18 07:24:34;;;;;;;10.75;2.22;;;;;;;;;;6053991;23;20027;-57
2023/07/18 07:27:21;;;;;;;13.98;2.50;;;;;;;;;;6057806;23;20455;-57
2023/07/18 07:30:15;;;;;;;13.02;1.98;;;;;;;;;;6055272;23;20034;-57
2023/07/18 07:33:09;;;;;;;6.75;1.95;;;;;;;;;;6056773;23;20058;-57
2023/07/18 07:36:03;;;;;;;10.25;2.17;;;;;;;;;;6057999;23;20027;-57
2023/07/18 07:38:51;;;;;;;10.40;2.90;;;;;;;;;;6055696;23;20637;-58
2023/07/18 07:41:44;;;;;;;10.25;2.38;;;;;;;;;;6057610;23;20027;-63
2023/07/18 07:44:32;;;;;;;9.13;2.30;;;;;;;;;;6058334;23;20487;-57
2023/07/18 07:47:25;;;;;;;9.10;2.10;;;;;;;;;;6058326;23;20023;-57
2023/07/18 07:50:13;;;;;;;8.00;2.35;;;;;;;;;;6057419;23;20066;-57
2023/07/18 07:53:06;;;;;;;10.85;2.20;;;;;;;;;;6057788;23;20102;-57
2023/07/18 07:55:54;;;;;;;12.32;2.20;;;;;;;;;;6059701;23;20247;-57
2023/07/18 07:58:47;;;;;;;11.73;2.05;;;;;;;;;;6056729;23;20026;-58
2023/07/18 08:01:38;;;;;;;11.18;2.00;;;;;;;;;;6056123;23;20590;-58
2023/07/18 08:04:31;;;;;;;12.00;2.28;;;;;;;;;;6057340;23;20023;-58
2023/07/18 08:07:19;;;;;;;13.73;2.03;;;;;;;;;;6057979;23;20065;-57
2023/07/18 08:10:12;;;;;;;13.95;2.53;;;;;;;;;;6058486;23;20027;-58
2023/07/18 08:13:00;;;;;;;13.85;2.35;;;;;;;;;;6059420;23;20079;-58
2023/07/18 08:15:53;;;;;;;7.43;1.60;;;;;;;;;;6057079;23;20027;-57
2023/07/18 08:18:41;;;;;;;11.10;2.10;;;;;;;;;;6058525;23;20597;-57
2023/07/18 08:21:34;;;;;;;14.48;2.47;;;;;;;;;;6057438;23;20553;-57
2023/07/18 08:24:22;;;;;;;6.25;1.60;;;;;;;;;;6056268;23;20027;-57
2023/07/18 08:27:15;;;;;;;7.22;1.52;;;;;;;;;;6060935;23;20486;-50
2023/07/18 08:30:03;;;;;;;10.20;1.90;;;;;;;;;;6057499;23;20078;-52
2023/07/18 08:33:09;;;;;;;8.00;1.50;;;;;;;;;;6056519;23;20022;-51
2023/07/18 08:36:04;;;;;;;13.93;2.20;;;;;;;;;;6058458;23;20486;-51
2023/07/18 08:38:57;;;;;;;9.23;1.98;;;;;;;;;;6058909;23;20549;-57
2023/07/18 08:41:45;;;;;;;10.15;2.13;;;;;;;;;;6057983;23;20090;-57
2023/07/18 08:44:40;;;;;;;6.93;1.92;;;;;;;;;;6057542;23;20363;-56
2023/07/18 08:47:27;;;;;;;7.13;2.27;;;;;;;;;;6057490;23;20027;-55
2023/07/18 08:50:22;;;;;;;8.50;2.00;;;;;;;;;;6057183;23;20033;-57
2023/07/18 08:53:16;;;;;;;12.02;1.55;;;;;;;;;;6058811;23;20594;-57
2023/07/18 08:56:10;;;;;;;8.63;1.83;;;;;;;;;;6057039;23;20027;-62
2023/07/18 08:58:58;;;;;;;11.10;2.38;;;;;;;;;;6058683;23;20086;-62
2023/07/18 09:01:52;;;;;;;9.95;2.13;;;;;;;;;;6059738;23;20086;-62
2023/07/18 09:04:39;;;;;;;6.43;1.73;;;;;;;;;;6059134;23;20431;-62
2023/07/18 09:07:37;;;;;;;9.65;2.20;;;;;;;;;;6059705;23;20019;-59
2023/07/18 09:10:24;;;;;;;10.15;2.08;;;;;;;;;;6054492;23;20026;-57
2023/07/18 09:13:17;;;;;;;13.00;1.90;;;;;;;;;;6058557;23;20026;-57
2023/07/18 09:16:14;;;;;;;8.70;1.88;;;;;;;;;;6056362;23;20030;-57
2023/07/18 09:19:08;;;;;;;13.85;2.75;;;;;;;;;;6056668;23;20031;-57
2023/07/18 09:21:59;;;;;;;11.93;1.98;;;;;;;;;;6056394;23;20086;-58
2023/07/18 09:24:55;;;;;;;10.55;1.92;;;;;;;;;;6057451;23;20081;-57
2023/07/18 09:27:55;;;;;;;7.95;2.42;;;;;;;;;;6058147;23;20078;-58
2023/07/18 09:30:42;;;;;;;12.10;2.50;;;;;;;;;;6056622;23;20062;-57
2023/07/18 09:33:42;;;;;;;15.63;2.33;;;;;;;;;;6055206;23;20091;-58
2023/07/18 09:36:35;;;;;;;8.90;1.88;;;;;;;;;;6056493;23;20026;-56
2023/07/18 09:39:23;;;;;;;8.00;2.13;;;;;;;;;;6054746;23;20074;-57
2023/07/18 09:42:19;;;;;;;8.15;1.95;;;;;;;;;;6057198;23;20058;-57
2023/07/18 09:45:12;;;;;;;8.65;2.10;;;;;;;;;;6056086;23;20027;-58
2023/07/18 09:48:07;;;;;;;12.63;2.90;;;;;;;;;;6057258;23;20027;-57
2023/07/18 09:50:56;;;;;;;5.18;1.35;;;;;;;;;;6058534;23;20059;-57
2023/07/18 09:53:51;;;;;;;8.73;2.03;;;;;;;;;;6057822;23;20027;-58
2023/07/18 09:56:39;;;;;;;10.80;1.73;;;;;;;;;;6057070;23;20034;-57
2023/07/18 09:59:37;;;;;;;9.38;1.90;;;;;;;;;;6057134;23;20030;-57
2023/07/18 10:02:22;;;;;;;6.60;1.88;;;;;;;;;;6056367;23;20562;-64
2023/07/18 10:05:17;;;;;;;10.77;1.90;;;;;;;;;;6057732;23;20051;-61
2023/07/18 10:08:07;;;;;;;6.47;1.67;;;;;;;;;;6057208;23;20042;-58
2023/07/18 10:11:02;;;;;;;10.48;1.88;;;;;;;;;;6058763;23;20030;-57
2023/07/18 10:13:55;;;;;;;8.77;1.70;;;;;;;;;;6054248;23;20025;-58
2023/07/18 10:16:54;;;;;;;10.73;1.77;;;;;;;;;;6056648;23;20192;-58
2023/07/18 10:19:50;;;;;;;13.23;2.30;;;;;;;;;;6053866;23;20088;-57
2023/07/18 10:22:53;;;;;;;10.93;1.80;;;;;;;;;;6056468;23;20079;-57
2023/07/18 10:25:39;;;;;;;7.07;1.80;;;;;;;;;;6056390;23;20105;-57
2023/07/18 10:28:45;;;;;;;9.02;2.08;;;;;;;;;;6056773;23;20441;-57
2023/07/18 10:31:39;;;;;;;6.95;1.95;;;;;;;;;;6057071;23;20090;-58
2023/07/18 10:34:43;;;;;;;13.45;2.20;;;;;;;;;;6055423;23;20037;-58
2023/07/18 10:37:31;;;;;;;10.75;2.25;;;;;;;;;;6058237;23;20034;-58
2023/07/18 10:40:32;;;;;;;9.88;1.63;;;;;;;;;;6057657;23;20022;-58
2023/07/18 10:43:20;;;;;;;10.98;2.60;;;;;;;;;;6057331;23;20062;-57
2023/07/18 10:46:12;;;;;;;8.88;2.30;;;;;;;;;;6056667;23;20482;-58
2023/07/18 10:49:00;;;;;;;10.52;1.98;;;;;;;;;;6053933;23;20034;-57
2023/07/18 10:51:54;;;;;;;8.27;2.00;;;;;;;;;;6057164;23;20026;-58
2023/07/18 10:54:45;;;;;;;11.45;2.72;;;;;;;;;;6057994;23;20089;-58
2023/07/18 10:57:39;;;;;;;8.07;1.88;;;;;;;;;;6058479;23;20082;-57
2023/07/18 11:00:26;;;;;;;8.63;2.58;;;;;;;;;;6056553;23;20022;-57
2023/07/18 11:03:20;;;;;;;12.77;2.53;;;;;;;;;;6057555;23;20030;-57
2023/07/18 11:06:07;;;;;;;9.45;2.30;;;;;;;;;;6057563;23;20086;-57
2023/07/18 11:09:00;;;;;;;15.13;2.25;;;;;;;;;;6055763;23;20030;-57
2023/07/18 11:11:49;;;;;;;10.50;2.37;;;;;;;;;;6055738;23;20101;-57
2023/07/18 11:14:42;;;;;;;9.05;2.40;;;;;;;;;;6057042;23;20546;-58
2023/07/18 11:17:30;;;;;;;8.98;2.17;;;;;;;;;;6058067;23;20031;-58
2023/07/18 11:20:25;;;;;;;6.93;2.08;;;;;;;;;;6057427;23;20057;-58
2023/07/18 11:23:12;;;;;;;9.40;1.80;;;;;;;;;;6055740;23;20319;-58
2023/07/18 11:26:12;;;;;;;13.90;2.67;;;;;;;;;;6059011;23;20399;-58
2023/07/18 11:29:00;;;;;;;9.48;1.75;;;;;;;;;;6055873;23;20050;-49
2023/07/18 11:31:53;;;;;;;9.43;1.75;;;;;;;;;;6058526;23;20019;-57
2023/07/18 11:34:56;;;;;;;11.77;2.28;;;;;;;;;;6055848;23;20094;-57
2023/07/18 11:37:53;;;;;;;9.60;2.17;;;;;;;;;;6059218;23;20031;-57
2023/07/18 11:40:40;;;;;;;12.57;2.47;;;;;;;;;;6055429;23;20058;-57
2023/07/18 11:43:35;;;;;;;6.90;1.70;;;;;;;;;;6059393;23;20027;-57
2023/07/18 11:46:34;;;;;;;13.75;1.85;;;;;;;;;;6057558;23;20565;-56
2023/07/18 11:49:34;;;;;;;9.23;1.75;;;;;;;;;;6057737;23;20027;-55
2023/07/18 11:52:28;;;;;;;7.65;1.75;;;;;;;;;;6052016;23;20583;-56
2023/07/18 11:55:22;;;;;;;4.53;1.48;;;;;;;;;;6057663;23;20502;-57
2023/07/18 11:58:10;;;;;;;6.97;1.52;;;;;;;;;;6059538;23;20385;-56
2023/07/18 12:01:02;;;;;;;13.80;10.93;;;;;;;;;;6055810;23;20405;-53
2023/07/18 12:03:51;;;;;;;8.68;1.77;;;;;;;;;;6055911;23;20462;-52
2023/07/18 12:06:46;;;;;;;8.82;1.65;;;;;;;;;;6058135;23;20573;-51
2023/07/18 12:09:32;;;;;;;11.32;1.60;;;;;;;;;;6055483;23;20077;-52
2023/07/18 12:12:25;;;;;;;6.32;1.75;;;;;;;;;;6056091;23;20023;-51
2023/07/18 12:15:13;;;;;;;9.30;1.80;;;;;;;;;;6059806;23;20027;-63
2023/07/18 12:18:06;;;;;;;10.05;1.65;;;;;;;;;;6059103;23;20061;-63
2023/07/18 12:20:54;;;;;;;12.35;2.35;;;;;;;;;;6056468;23;20042;-62
2023/07/18 12:23:48;;;;;;;8.80;1.83;;;;;;;;;;6057437;23;20046;-62
2023/07/18 12:26:35;;;;;;;7.72;1.50;;;;;;;;;;6057144;23;20078;-57
2023/07/18 12:29:28;;;;;;;9.30;1.65;;;;;;;;;;6056148;23;20030;-57
2023/07/18 12:32:16;;;;;;;8.35;1.35;;;;;;;;;;6058766;23;20095;-57
2023/07/18 12:35:16;;;;;;;6.15;1.70;;;;;;;;;;6057797;23;20023;-57
2023/07/18 12:38:11;;;;;;;10.25;1.80;;;;;;;;;;6058361;23;20415;-57
2023/07/18 12:40:58;;;;;;;12.70;2.05;;;;;;;;;;6058376;23;20098;-57
2023/07/18 12:43:52;;;;;;;7.07;1.48;;;;;;;;;;6058941;23;20023;-62
2023/07/18 12:46:47;;;;;;;9.10;1.73;;;;;;;;;;6055901;23;20491;-61
2023/07/18 12:49:36;;;;;;;11.30;2.20;;;;;;;;;;6056606;23;20027;-61
2023/07/18 12:52:28;;;;;;;9.48;2.20;;;;;;;;;;6054735;23;20270;-61
2023/07/18 12:55:16;;;;;;;6.93;1.95;;;;;;;;;;6056190;23;20090;-56
2023/07/18 12:58:10;;;;;;;6.50;1.77;;;;;;;;;;6056903;23;20082;-57
2023/07/18 13:00:57;;;;;;;9.18;1.80;;;;;;;;;;6054984;23;20031;-57
2023/07/18 13:03:50;;;;;;;10.45;1.80;;;;;;;;;;6056290;23;20031;-57
2023/07/18 13:06:38;;;;;;;7.50;1.60;;;;;;;;;;6058252;23;20122;-57
2023/07/18 13:09:32;;;;;;;6.63;1.55;;;;;;;;;;6056631;23;20593;-57
2023/07/18 13:12:19;;;;;;;6.47;1.50;;;;;;;;;;6059499;23;20078;-52
2023/07/18 13:15:12;;;;;;;10.50;1.90;;;;;;;;;;6052881;23;20426;-50
2023/07/18 13:18:00;;;;;;;7.07;1.88;;;;;;;;;;6056181;23;20222;-48
2023/07/18 13:20:53;;;;;;;6.75;1.63;;;;;;;;;;6056821;23;20050;-51
2023/07/18 13:23:48;;;;;;;8.15;1.80;;;;;;;;;;6056575;23;20089;-61
2023/07/18 13:26:36;;;;;;;6.70;1.55;;;;;;;;;;6055796;23;20066;-62
2023/07/18 13:29:31;;;;;;;7.15;1.70;;;;;;;;;;6056611;23;20026;-62
2023/07/18 13:32:18;;;;;;;8.07;1.60;;;;;;;;;;6055259;23;20027;-62
2023/07/18 13:35:24;;;;;;;6.53;2.00;;;;;;;;;;6056900;23;20022;-62
2023/07/18 13:38:11;;;;;;;8.73;2.33;;;;;;;;;;6056544;23;20027;-62
2023/07/18 13:41:10;;;;;;;9.85;2.22;;;;;;;;;;6058736;23;20090;-57
2023/07/18 13:43:56;;;;;;;7.88;1.60;;;;;;;;;;6054626;23;20031;-58
2023/07/18 13:46:50;;;;;;;8.43;1.90;;;;;;;;;;6056088;23;20114;-58
2023/07/18 13:49:43;;;;;;;10.35;1.90;;;;;;;;;;6058490;23;20557;-57
2023/07/18 13:52:41;;;;;;;9.88;1.63;;;;;;;;;;6060952;23;20031;-57
2023/07/18 13:55:28;;;;;;;9.73;2.13;;;;;;;;;;6056266;23;20167;-58
2023/07/18 13:58:22;;;;;;;13.38;2.10;;;;;;;;;;6057513;23;20027;-57
2023/07/18 14:01:09;;;;;;;13.23;1.98;;;;;;;;;;6057060;23;20027;-57
2023/07/18 14:04:03;;;;;;;9.45;2.13;;;;;;;;;;6057400;23;20125;-57
2023/07/18 14:06:50;;;;;;;9.65;2.15;;;;;;;;;;6057703;23;20068;-57
2023/07/18 14:09:44;;;;;;;13.85;2.13;;;;;;;;;;6057110;23;20379;-57
2023/07/18 14:12:31;;;;;;;7.63;2.00;;;;;;;;;;6056655;23;20027;-56
2023/07/18 14:15:25;;;;;;;9.35;2.33;;;;;;;;;;6057797;23;20023;-57
2023/07/18 14:18:12;;;;;;;8.63;2.05;;;;;;;;;;6057251;23;20055;-57
2023/07/18 14:21:07;;;;;;;11.10;2.40;;;;;;;;;;6058359;23;20027;-57
2023/07/18 14:23:53;;;;;;;11.43;2.42;;;;;;;;;;6052930;23;20022;-57
2023/07/18 14:26:47;;;;;;;7.43;2.22;;;;;;;;;;6055681;23;20023;-58
2023/07/18 14:29:41;;;;;;;9.15;1.88;;;;;;;;;;6057917;23;20030;-57
2023/07/18 14:32:28;;;;;;;7.55;2.10;;;;;;;;;;6057306;23;20499;-54
2023/07/18 14:35:28;;;;;;;6.45;1.58;;;;;;;;;;6054533;23;20030;-58
2023/07/18 14:38:15;;;;;;;8.63;1.75;;;;;;;;;;6055560;23;20030;-58
2023/07/18 14:41:12;;;;;;;9.27;2.17;;;;;;;;;;6057572;23;20023;-57
2023/07/18 14:44:00;;;;;;;5.95;1.88;;;;;;;;;;6058462;23;20086;-57
2023/07/18 14:46:54;;;;;;;5.78;1.70;;;;;;;;;;6057810;23;20382;-58
2023/07/18 14:49:41;;;;;;;7.10;1.83;;;;;;;;;;6057340;23;20125;-51
2023/07/18 14:52:35;;;;;;;4.93;1.33;;;;;;;;;;6059324;23;20030;-57
2023/07/18 14:55:22;;;;;;;7.10;2.03;;;;;;;;;;6059155;23;20490;-57
2023/07/18 14:58:16;;;;;;;9.40;2.17;;;;;;;;;;6061028;23;20082;-58
2023/07/18 15:01:03;;;;;;;9.82;2.03;;;;;;;;;;6059586;23;20031;-57
2023/07/18 15:03:57;;;;;;;11.25;2.30;;;;;;;;;;6059974;23;20023;-58
2023/07/18 15:06:44;;;;;;;8.00;1.73;;;;;;;;;;6059750;23;20022;-57
2023/07/18 15:09:38;;;;;;;12.88;2.33;;;;;;;;;;6058196;23;20086;-58
2023/07/18 15:12:25;;;;;;;10.60;1.90;;;;;;;;;;6058589;23;20083;-58
2023/07/18 15:15:18;;;;;;;10.88;2.50;;;;;;;;;;6057866;23;20578;-57
2023/07/18 15:18:06;;;;;;;10.15;2.08;;;;;;;;;;6060663;23;20058;-58
2023/07/18 15:21:00;;;;;;;6.95;2.22;;;;;;;;;;6059267;23;20086;-57
2023/07/18 15:23:47;;;;;;;8.35;2.40;;;;;;;;;;6057817;23;20030;-57
2023/07/18 15:26:42;;;;;;;12.15;2.20;;;;;;;;;;6058270;23;20070;-58
2023/07/18 15:29:29;;;;;;;12.38;2.53;;;;;;;;;;6057434;23;20027;-56
2023/07/18 15:32:22;;;;;;;9.18;2.55;;;;;;;;;;6058226;23;20046;-57
2023/07/18 15:35:20;;;;;;;12.88;3.05;;;;;;;;;;6055680;23;20133;-52
2023/07/18 15:38:14;;;;;;;12.68;2.75;;;;;;;;;;6056567;23;20041;-49
2023/07/18 15:41:01;;;;;;;18.77;3.13;;;;;;;;;;6058065;23;20022;-53
2023/07/18 15:43:56;;;;;;;13.57;2.72;;;;;;;;;;6058494;23;20445;-61
2023/07/18 15:46:42;;;;;;;14.13;2.70;;;;;;;;;;6057925;23;20023;-57
2023/07/18 15:49:56;;;;;;;12.05;2.60;;;;;;;;;;6057388;23;20113;-57
2023/07/18 15:52:51;;;;;;;13.88;3.15;;;;;;;;;;6060467;23;20086;-56
2023/07/18 15:55:45;;;;;;;12.90;2.50;;;;;;;;;;6059374;23;20027;-57
2023/07/18 15:58:32;;;;;;;11.60;2.83;;;;;;;;;;6059791;23;20031;-57
2023/07/18 16:01:25;;;;;;;13.85;2.95;;;;;;;;;;6056765;23;20031;-56
2023/07/18 16:04:14;;;;;;;10.05;2.33;;;;;;;;;;6058573;23;20025;-62
2023/07/18 16:07:08;;;;;;;14.23;2.55;;;;;;;;;;6052891;23;20548;-62
2023/07/18 16:09:57;;;;;;;14.07;2.67;;;;;;;;;;6058870;23;20023;-62
2023/07/18 16:12:48;;;;;;;13.70;2.65;;;;;;;;;;6057456;23;20078;-58
2023/07/18 16:15:36;;;;;;;11.75;2.92;;;;;;;;;;6057820;23;20027;-61
2023/07/18 16:18:30;;;;;;;14.80;2.65;;;;;;;;;;6058417;23;20107;-61
2023/07/18 16:21:17;;;;;;;9.80;2.38;;;;;;;;;;6056637;23;20023;-61
2023/07/18 16:24:11;;;;;;;15.10;3.00;;;;;;;;;;6058525;23;20026;-60
2023/07/18 16:26:58;;;;;;;11.98;2.88;;;;;;;;;;6060545;23;20030;-60
2023/07/18 16:29:51;;;;;;;14.38;3.10;;;;;;;;;;6058832;23;20323;-61
2023/07/18 16:32:39;;;;;;;17.83;2.97;;;;;;;;;;6058276;23;20462;-57
2023/07/18 16:35:39;;;;;;;9.75;2.63;;;;;;;;;;6057794;23;20023;-56
2023/07/18 16:38:28;;;;;;;18.33;2.70;;;;;;;;;;6057990;23;20029;-58
2023/07/18 16:41:21;;;;;;;14.57;2.88;;;;;;;;;;6059660;23;20086;-57